Time;durP1;ratioP1;P1;durP2;ratioP2;P2;SDS_P1;SDS_P2;PMS_P1;PMS_P2;Temp;Humidity;BMP_temperature;BMP_pressure;BME280_temperature;BME280_humidity;BME280_pressure;Samples;Min_cycle;Max_cycle;Signal;HPM_P1;HPM_P2
2022/10/14 00:00:45;;;;;;;;;;;;;;;8.01;100.00;100778.59;3057506;19;20366;-52
2022/10/14 00:01:51;;;;;;;;;;;;;;;7.97;100.00;100776.16;3057739;19;20319;-52
2022/10/14 00:02:53;;;;;;;;;;;;;;;7.93;100.00;100770.13;3057532;19;20464;-51
2022/10/14 00:03:57;;;;;;;;;;;;;;;7.90;100.00;100770.25;3057227;19;19942;-52
2022/10/14 00:04:59;;;;;;;;;;;;;;;7.86;100.00;100774.84;3057343;19;19923;-51
2022/10/14 00:06:11;;;;;;;;;;;;;;;7.83;100.00;100771.47;3057739;19;19938;-52
2022/10/14 00:07:13;;;;;;;;;;;;;;;7.78;100.00;100776.13;3057459;19;19919;-52
2022/10/14 00:08:17;;;;;;;;;;;;;;;7.75;100.00;100768.28;3057445;19;20378;-52
2022/10/14 00:09:19;;;;;;;;;;;;;;;7.69;100.00;100773.91;3057588;19;19941;-52
2022/10/14 00:10:23;;;;;;;;;;;;;;;7.64;100.00;100771.44;3057667;19;19923;-51
2022/10/14 00:11:29;;;;;;;;;;;;;;;7.63;100.00;100766.19;3056161;19;19919;-51
2022/10/14 00:12:32;;;;;;;;;;;;;;;7.61;100.00;100768.09;3057019;19;19919;-52
2022/10/14 00:13:36;;;;;;;;;;;;;;;7.58;100.00;100766.41;3056880;19;19990;-51
2022/10/14 00:14:38;;;;;;;;;;;;;;;7.53;100.00;100756.00;3055924;19;20260;-52
2022/10/14 00:15:43;;;;;;;;;;;;;;;7.51;100.00;100757.84;3057247;19;19978;-52
2022/10/14 00:16:45;;;;;;;;;;;;;;;7.49;100.00;100759.69;3057664;19;20680;-51
2022/10/14 00:17:50;;;;;;;;;;;;;;;7.46;100.00;100764.31;3056982;19;19936;-52
2022/10/14 00:18:51;;;;;;;;;;;;;;;7.44;100.00;100758.19;3059259;19;19933;-52
2022/10/14 00:19:56;;;;;;;;;;;;;;;7.41;100.00;100764.50;3057283;19;19943;-52
2022/10/14 00:20:59;;;;;;;;;;;;;;;7.37;100.00;100757.59;3057733;19;20030;-53
2022/10/14 00:22:05;;;;;;;;;;;;;;;7.37;100.00;100764.69;3057536;19;20002;-52
2022/10/14 00:23:07;;;;;;;;;;;;;;;7.32;100.00;100751.63;3057670;19;20289;-52
2022/10/14 00:24:12;;;;;;;;;;;;;;;7.30;100.00;100756.16;3056585;19;19922;-52
2022/10/14 00:25:14;;;;;;;;;;;;;;;7.29;100.00;100761.53;3056732;19;20426;-52
2022/10/14 00:26:20;;;;;;;;;;;;;;;7.26;100.00;100762.50;3057553;19;19923;-52
2022/10/14 00:27:23;;;;;;;;;;;;;;;7.23;100.00;100763.53;3057385;19;20294;-52
2022/10/14 00:28:27;;;;;;;;;;;;;;;7.21;100.00;100764.53;3057183;19;19955;-52
2022/10/14 00:29:29;;;;;;;;;;;;;;;7.17;100.00;100762.91;3057120;19;20595;-52
2022/10/14 00:30:33;;;;;;;;;;;;;;;7.15;100.00;100751.50;3057268;19;20327;-52
2022/10/14 00:31:37;;;;;;;;;;;;;;;7.13;100.00;100756.88;3057562;19;19911;-52
2022/10/14 00:32:41;;;;;;;;;;;;;;;7.11;100.00;100758.75;3057201;19;19946;-51
2022/10/14 00:33:43;;;;;;;;;;;;;;;7.09;100.00;100749.13;3056376;19;19923;-52
2022/10/14 00:34:47;;;;;;;;;;;;;;;7.09;100.00;100751.78;3055612;19;19915;-52
2022/10/14 00:36:07;;;;;;;;;;;;;;;7.04;100.00;100745.78;3056125;19;20382;-54
2022/10/14 00:37:12;;;;;;;;;;;;;;;7.03;100.00;100741.41;3057250;19;19951;-52
2022/10/14 00:38:14;;;;;;;;;;;;;;;7.00;100.00;100744.22;3058306;19;19952;-52
2022/10/14 00:39:18;;;;;;;;;;;;;;;6.97;100.00;100739.03;3055746;19;19919;-52
2022/10/14 00:40:20;;;;;;;;;;;;;;;6.97;100.00;100739.91;3056923;19;19915;-52
2022/10/14 00:41:25;;;;;;;;;;;;;;;6.95;100.00;100743.53;3057234;19;19923;-51
2022/10/14 00:42:30;;;;;;;;;;;;;;;6.92;100.00;100741.00;3056276;19;20210;-51
2022/10/14 00:43:52;;;;;;;;;;;;;;;6.88;100.00;100735.81;3056471;19;19922;-52
2022/10/14 00:44:58;;;;;;;;;;;;;;;6.88;100.00;100739.44;3055478;19;19923;-52
2022/10/14 00:46:02;;;;;;;;;;;;;;;6.84;100.00;100739.56;3056657;19;20044;-51
2022/10/14 00:47:04;;;;;;;;;;;;;;;6.84;100.00;100738.69;3056131;19;20342;-52
2022/10/14 00:48:09;;;;;;;;;;;;;;;6.81;100.00;100739.69;3057282;19;19919;-51
2022/10/14 00:49:14;;;;;;;;;;;;;;;6.80;100.00;100737.94;3055967;19;19973;-52
2022/10/14 00:50:19;;;;;;;;;;;;;;;6.78;100.00;100733.63;3056387;19;19919;-52
2022/10/14 00:51:21;;;;;;;;;;;;;;;6.75;100.00;100732.00;3056106;19;19922;-51
2022/10/14 00:52:27;;;;;;;;;;;;;;;6.73;100.00;100731.19;3056122;19;20524;-52
2022/10/14 00:53:29;;;;;;;;;;;;;;;6.73;100.00;100725.03;3055714;19;19934;-52
2022/10/14 00:54:37;;;;;;;;;;;;;;;6.72;100.00;100729.47;3055667;19;20262;-52
2022/10/14 00:55:39;;;;;;;;;;;;;;;6.71;100.00;100733.03;3056680;19;19930;-52
2022/10/14 00:56:45;;;;;;;;;;;;;;;6.69;100.00;100726.94;3056147;19;20456;-52
2022/10/14 00:57:47;;;;;;;;;;;;;;;6.67;100.00;100727.91;3056105;19;19930;-52
2022/10/14 00:58:51;;;;;;;;;;;;;;;6.66;100.00;100723.53;3055802;19;20460;-51
2022/10/14 00:59:53;;;;;;;;;;;;;;;6.66;100.00;100721.75;3056006;19;20310;-53
2022/10/14 01:00:58;;;;;;;;;;;;;;;6.63;100.00;100713.94;3055862;19;19922;-51
2022/10/14 01:02:00;;;;;;;;;;;;;;;6.62;100.00;100714.88;3056367;19;20039;-52
2022/10/14 01:03:09;;;;;;;;;;;;;;;6.61;100.00;100715.78;3055940;19;19982;-52
2022/10/14 01:04:11;;;;;;;;;;;;;;;6.61;100.00;100721.09;3057124;19;19918;-51
2022/10/14 01:05:16;;;;;;;;;;;;;;;6.63;100.00;100716.59;3055568;19;20357;-52
2022/10/14 01:06:30;;;;;;;;;;;;;;;6.66;100.00;100713.78;3055878;19;20345;-52
2022/10/14 01:07:54;;;;;;;;;;;;;;;6.71;100.00;100718.91;3056047;19;19923;-51
2022/10/14 01:09:03;;;;;;;;;;;;;;;6.79;100.00;100715.00;3057374;19;19926;-52
2022/10/14 01:10:11;;;;;;;;;;;;;;;6.86;100.00;100715.63;3056492;19;19924;-51
2022/10/14 01:11:21;;;;;;;;;;;;;;;6.94;100.00;100712.63;3056816;19;20258;-52
2022/10/14 01:12:32;;;;;;;;;;;;;;;7.02;100.00;100715.81;3057216;19;19923;-52
2022/10/14 01:13:39;;;;;;;;;;;;;;;7.10;100.00;100716.34;3055662;19;20302;-52
2022/10/14 01:14:50;;;;;;;;;;;;;;;7.16;100.00;100710.75;3055905;19;19915;-52
2022/10/14 01:16:05;;;;;;;;;;;;;;;7.23;100.00;100706.94;3056012;19;20620;-51
2022/10/14 01:17:18;;;;;;;;;;;;;;;7.31;100.00;100699.47;3055691;19;19985;-52
2022/10/14 01:18:41;;;;;;;;;;;;;;;7.38;100.00;100698.25;3055585;19;19939;-52
2022/10/14 01:20:08;;;;;;;;;;;;;;;7.45;100.00;100699.72;3056034;19;19923;-52
2022/10/14 01:21:14;;;;;;;;;;;;;;;7.49;100.00;100695.97;3054927;19;20460;-52
2022/10/14 01:22:18;;;;;;;;;;;;;;;7.51;100.00;100696.75;3055277;19;19930;-52
2022/10/14 01:23:43;;;;;;;;;;;;;;;7.53;100.00;100702.88;3055432;19;20310;-52
2022/10/14 01:25:00;;;;;;;;;;;;;;;7.55;100.00;100701.03;3055673;19;19936;-51
2022/10/14 01:26:15;;;;;;;;;;;;;;;7.57;100.00;100707.13;3055710;19;19919;-51
2022/10/14 01:27:20;;;;;;;;;;;;;;;7.59;100.00;100710.59;3056582;19;19923;-52
2022/10/14 01:28:40;;;;;;;;;;;;;;;7.62;100.00;100703.38;3056012;19;20329;-52
2022/10/14 01:29:45;;;;;;;;;;;;;;;7.67;100.00;100701.38;3056790;19;19915;-52
2022/10/14 01:30:54;;;;;;;;;;;;;;;7.72;100.00;100707.38;3055814;19;19918;-52
2022/10/14 01:32:06;;;;;;;;;;;;;;;7.76;100.00;100712.44;3055769;19;19974;-51
2022/10/14 01:33:14;;;;;;;;;;;;;;;7.82;100.00;100708.66;3055894;19;19990;-51
2022/10/14 01:34:19;;;;;;;;;;;;;;;7.88;100.00;100708.34;3055718;19;19946;-52
2022/10/14 01:35:25;;;;;;;;;;;;;;;7.91;100.00;100702.91;3056068;19;20013;-52
2022/10/14 01:36:36;;;;;;;;;;;;;;;7.95;100.00;100699.19;3055495;19;19927;-52
2022/10/14 01:37:41;;;;;;;;;;;;;;;7.97;100.00;100691.97;3055394;19;19922;-52
2022/10/14 01:39:04;;;;;;;;;;;;;;;8.01;100.00;100698.88;3055367;19;20022;-51
2022/10/14 01:40:07;;;;;;;;;;;;;;;8.06;100.00;100696.00;3055811;19;19911;-52
2022/10/14 01:41:22;;;;;;;;;;;;;;;8.06;100.00;100707.50;3055507;19;19918;-51
2022/10/14 01:42:27;;;;;;;;;;;;;;;8.06;100.00;100696.88;3055740;19;20023;-52
2022/10/14 01:43:32;;;;;;;;;;;;;;;8.08;100.00;100699.44;3055457;19;19950;-52
2022/10/14 01:44:34;;;;;;;;;;;;;;;8.07;100.00;100706.56;3055206;19;19919;-52
2022/10/14 01:45:38;;;;;;;;;;;;;;;8.07;100.00;100703.03;3055966;19;19927;-52
2022/10/14 01:46:41;;;;;;;;;;;;;;;8.04;100.00;100700.53;3055739;19;19963;-52
2022/10/14 01:47:48;;;;;;;;;;;;;;;8.02;100.00;100700.59;3055563;19;19934;-51
2022/10/14 01:48:52;;;;;;;;;;;;;;;8.02;100.00;100700.59;3055254;19;20287;-52
2022/10/14 01:50:01;;;;;;;;;;;;;;;8.02;100.00;100700.59;3055446;19;20342;-51
2022/10/14 01:51:05;;;;;;;;;;;;;;;8.01;100.00;100698.88;3055316;19;19955;-52
2022/10/14 01:52:14;;;;;;;;;;;;;;;8.01;100.00;100690.91;3055309;19;19931;-52
2022/10/14 01:53:23;;;;;;;;;;;;;;;8.02;100.00;100705.91;3055553;19;20389;-52
2022/10/14 01:54:29;;;;;;;;;;;;;;;8.03;100.00;100701.47;3056450;19;19946;-52
2022/10/14 01:55:33;;;;;;;;;;;;;;;8.03;100.00;100694.34;3055032;19;19934;-52
2022/10/14 01:56:37;;;;;;;;;;;;;;;8.03;100.00;100697.00;3055461;19;20386;-52
2022/10/14 01:57:41;;;;;;;;;;;;;;;8.01;100.00;100698.88;3055459;19;19923;-52
2022/10/14 01:58:46;;;;;;;;;;;;;;;8.03;100.00;100696.13;3055656;19;20292;-52
2022/10/14 01:59:50;;;;;;;;;;;;;;;8.02;100.00;100695.28;3055293;19;20269;-51
2022/10/14 02:00:54;;;;;;;;;;;;;;;8.02;100.00;100699.72;3055603;19;19944;-52
2022/10/14 02:01:56;;;;;;;;;;;;;;;8.03;100.00;100702.31;3055443;19;19919;-52
2022/10/14 02:03:01;;;;;;;;;;;;;;;8.05;100.00;100705.78;3056570;19;19926;-52
2022/10/14 02:04:11;;;;;;;;;;;;;;;8.06;100.00;100707.50;3056342;19;19923;-51
2022/10/14 02:05:31;;;;;;;;;;;;;;;8.08;100.00;100699.44;3055568;19;20300;-51
2022/10/14 02:06:33;;;;;;;;;;;;;;;8.10;100.00;100709.06;3055254;19;20398;-51
2022/10/14 02:07:41;;;;;;;;;;;;;;;8.11;100.00;100697.47;3055352;19;19919;-52
2022/10/14 02:08:55;;;;;;;;;;;;;;;8.13;100.00;100703.59;3055730;19;20604;-52
2022/10/14 02:10:10;;;;;;;;;;;;;;;8.16;100.00;100703.47;3055969;19;19986;-52
2022/10/14 02:11:13;;;;;;;;;;;;;;;8.18;100.00;100700.72;3056338;19;20080;-52
2022/10/14 02:12:26;;;;;;;;;;;;;;;8.20;100.00;100705.03;3055166;19;19988;-52
2022/10/14 02:13:28;;;;;;;;;;;;;;;8.24;100.00;100703.94;3055356;19;20354;-52
2022/10/14 02:14:32;;;;;;;;;;;;;;;8.27;100.00;100701.13;3054818;19;20294;-52
2022/10/14 02:15:40;;;;;;;;;;;;;;;8.30;100.00;100703.66;3055276;19;19980;-52
2022/10/14 02:16:52;;;;;;;;;;;;;;;8.32;100.00;100697.44;3054928;19;20050;-52
2022/10/14 02:17:55;;;;;;;;;;;;;;;8.34;100.00;100703.50;3055320;19;19937;-52
2022/10/14 02:19:10;;;;;;;;;;;;;;;8.36;100.00;100709.63;3055374;19;19914;-52
2022/10/14 02:20:18;;;;;;;;;;;;;;;8.37;100.00;100695.41;3055058;19;20327;-52
2022/10/14 02:21:50;;;;;;;;;;;;;;;8.38;100.00;100702.44;3055176;19;20464;-51
2022/10/14 02:23:03;;;;;;;;;;;;;;;8.39;100.00;100704.16;3054920;19;20346;-52
2022/10/14 02:24:17;;;;;;;;;;;;;;;8.37;100.00;100703.38;3054731;19;19914;-53
2022/10/14 02:25:26;;;;;;;;;;;;;;;8.33;100.00;100696.50;3055462;19;19923;-51
2022/10/14 02:26:31;;;;;;;;;;;;;;;8.31;100.00;100701.84;3055233;19;19915;-51
2022/10/14 02:27:33;;;;;;;;;;;;;;;8.30;100.00;100708.97;3055229;19;20353;-52
2022/10/14 02:28:38;;;;;;;;;;;;;;;8.28;100.00;100705.53;3054883;19;20253;-52
2022/10/14 02:29:41;;;;;;;;;;;;;;;8.25;100.00;100692.38;3054909;19;20600;-51
2022/10/14 02:30:47;;;;;;;;;;;;;;;8.25;100.00;100703.00;3054798;19;19943;-52
2022/10/14 02:31:51;;;;;;;;;;;;;;;8.26;100.00;100702.06;3054836;19;20219;-51
2022/10/14 02:32:56;;;;;;;;;;;;;;;8.25;100.00;100703.00;3054856;19;19927;-52
2022/10/14 02:33:58;;;;;;;;;;;;;;;8.23;100.00;100699.56;3054955;19;19929;-52
2022/10/14 02:35:02;;;;;;;;;;;;;;;8.24;100.00;100700.41;3055749;19;19935;-51
2022/10/14 02:36:04;;;;;;;;;;;;;;;8.25;100.00;100696.81;3057580;19;20380;-52
2022/10/14 02:37:11;;;;;;;;;;;;;;;8.27;100.00;100700.28;3057887;19;20377;-53
2022/10/14 02:38:13;;;;;;;;;;;;;;;8.29;100.00;100691.28;3058101;19;19940;-52
2022/10/14 02:39:20;;;;;;;;;;;;;;;8.32;100.00;100697.44;3058660;19;19926;-52
2022/10/14 02:40:26;;;;;;;;;;;;;;;8.33;100.00;100689.38;3058377;19;19918;-52
2022/10/14 02:41:34;;;;;;;;;;;;;;;8.37;100.00;100696.25;3057827;19;19990;-52
2022/10/14 02:42:36;;;;;;;;;;;;;;;8.36;100.00;100680.38;3057988;19;20678;-52
2022/10/14 02:43:41;;;;;;;;;;;;;;;8.43;100.00;100687.13;3058864;19;19926;-52
2022/10/14 02:44:55;;;;;;;;;;;;;;;8.45;100.00;100683.44;3057456;19;19922;-52
2022/10/14 02:45:58;;;;;;;;;;;;;;;8.51;100.00;100690.25;3058341;19;19929;-52
2022/10/14 02:47:02;;;;;;;;;;;;;;;8.52;100.00;100684.88;3058089;19;19919;-52
2022/10/14 02:48:05;;;;;;;;;;;;;;;8.55;100.00;100690.03;3058006;19;19915;-51
2022/10/14 02:49:09;;;;;;;;;;;;;;;8.60;100.00;100687.13;3058057;19;20310;-52
2022/10/14 02:50:11;;;;;;;;;;;;;;;8.63;100.00;100687.00;3057836;19;19922;-52
2022/10/14 02:51:15;;;;;;;;;;;;;;;8.66;100.00;100682.38;3057886;19;19926;-52
2022/10/14 02:52:17;;;;;;;;;;;;;;;8.70;100.00;100684.88;3057998;19;19990;-52
2022/10/14 02:53:22;;;;;;;;;;;;;;;8.72;100.00;100691.84;3057902;19;19922;-52
2022/10/14 02:54:24;;;;;;;;;;;;;;;8.72;100.00;100697.16;3058039;19;19922;-53
2022/10/14 02:55:29;;;;;;;;;;;;;;;8.74;100.00;100684.63;3057706;19;19918;-52
2022/10/14 02:56:31;;;;;;;;;;;;;;;8.76;100.00;100688.09;3057645;19;20352;-54
2022/10/14 02:57:37;;;;;;;;;;;;;;;8.77;100.00;100683.63;3058027;19;20011;-52
2022/10/14 02:58:39;;;;;;;;;;;;;;;8.75;100.00;100688.16;3057823;19;19928;-52
2022/10/14 02:59:43;;;;;;;;;;;;;;;8.77;100.00;100684.50;3057688;19;20226;-52
2022/10/14 03:00:45;;;;;;;;;;;;;;;8.73;100.00;100690.91;3058281;19;20008;-51
2022/10/14 03:01:49;;;;;;;;;;;;;;;8.73;100.00;100687.38;3057498;19;20295;-52
2022/10/14 03:02:53;;;;;;;;;;;;;;;8.70;100.00;100680.41;3057938;19;19974;-51
2022/10/14 03:03:57;;;;;;;;;;;;;;;8.68;100.00;100682.31;3057101;19;19950;-52
2022/10/14 03:04:59;;;;;;;;;;;;;;;8.65;100.00;100685.13;3058034;19;19929;-52
2022/10/14 03:06:05;;;;;;;;;;;;;;;8.62;100.00;100686.13;3057901;19;19923;-55
2022/10/14 03:07:07;;;;;;;;;;;;;;;8.58;100.00;100681.03;3057808;19;19927;-52
2022/10/14 03:08:18;;;;;;;;;;;;;;;8.56;100.00;100690.91;3057582;19;19927;-52
2022/10/14 03:09:20;;;;;;;;;;;;;;;8.52;100.00;100684.00;3057940;19;19974;-51
2022/10/14 03:10:26;;;;;;;;;;;;;;;8.50;100.00;100684.09;3057491;19;19983;-52
2022/10/14 03:11:28;;;;;;;;;;;;;;;8.48;100.00;100690.41;3057803;19;19937;-52
2022/10/14 03:12:39;;;;;;;;;;;;;;;8.46;100.00;100689.63;3057564;19;19988;-52
2022/10/14 03:13:50;;;;;;;;;;;;;;;8.43;100.00;100688.00;3058033;19;20041;-52
2022/10/14 03:14:53;;;;;;;;;;;;;;;8.41;100.00;100686.34;3057613;19;19922;-52
2022/10/14 03:16:00;;;;;;;;;;;;;;;8.38;100.00;100681.16;3057495;19;20028;-52
2022/10/14 03:17:01;;;;;;;;;;;;;;;8.35;100.00;100678.66;3056595;19;19931;-52
2022/10/14 03:18:09;;;;;;;;;;;;;;;8.32;100.00;100679.69;3057793;19;19937;-51
2022/10/14 03:19:22;;;;;;;;;;;;;;;8.34;100.00;100684.91;3057938;19;19919;-52
2022/10/14 03:20:30;;;;;;;;;;;;;;;8.33;100.00;100680.56;3057587;19;20329;-52
2022/10/14 03:21:32;;;;;;;;;;;;;;;8.34;100.00;100682.25;3057326;19;19923;-52
2022/10/14 03:22:36;;;;;;;;;;;;;;;8.37;100.00;100679.44;3057353;19;19919;-52
2022/10/14 03:23:39;;;;;;;;;;;;;;;8.38;100.00;100679.38;3057583;19;19923;-52
2022/10/14 03:24:44;;;;;;;;;;;;;;;8.42;100.00;100677.44;3057572;19;19922;-52
2022/10/14 03:26:11;;;;;;;;;;;;;;;8.49;100.00;100676.16;3057302;19;19918;-52
2022/10/14 03:27:18;;;;;;;;;;;;;;;8.53;100.00;100675.94;3057235;19;19919;-52
2022/10/14 03:28:26;;;;;;;;;;;;;;;8.59;100.00;100680.09;3057783;19;19986;-51
2022/10/14 03:29:36;;;;;;;;;;;;;;;8.67;100.00;100683.25;3057395;19;19918;-52
2022/10/14 03:30:52;;;;;;;;;;;;;;;8.73;100.00;100677.59;3057231;19;19944;-52
2022/10/14 03:32:15;;;;;;;;;;;;;;;8.79;100.00;100677.31;3057564;19;20292;-52
2022/10/14 03:33:42;;;;;;;;;;;;;;;8.86;100.00;100684.00;3056743;19;19930;-51
2022/10/14 03:34:46;;;;;;;;;;;;;;;8.89;100.00;100686.53;3057669;19;19939;-52
2022/10/14 03:35:56;;;;;;;;;;;;;;;8.92;100.00;100683.72;3057214;19;19932;-52
2022/10/14 03:37:13;;;;;;;;;;;;;;;8.96;100.00;100690.56;3056574;19;19922;-52
2022/10/14 03:38:24;;;;;;;;;;;;;;;8.98;100.00;100688.69;3057400;19;20501;-52
2022/10/14 03:39:27;;;;;;;;;;;;;;;8.99;100.00;100686.91;3057055;19;19915;-52
2022/10/14 03:40:38;;;;;;;;;;;;;;;8.99;100.00;100679.78;3057412;19;19929;-52
2022/10/14 03:41:43;;;;;;;;;;;;;;;8.99;100.00;100679.78;3057179;19;19934;-54
2022/10/14 03:42:50;;;;;;;;;;;;;;;8.99;100.00;100682.44;3057530;19;19915;-52
2022/10/14 03:43:54;;;;;;;;;;;;;;;8.97;100.00;100676.34;3057269;19;19993;-52
2022/10/14 03:44:58;;;;;;;;;;;;;;;8.99;100.00;100684.25;3056654;19;20334;-52
2022/10/14 03:46:03;;;;;;;;;;;;;;;8.93;100.00;100680.13;3056188;19;19919;-53
2022/10/14 03:47:08;;;;;;;;;;;;;;;8.91;100.00;100681.13;3055752;19;19929;-52
2022/10/14 03:48:11;;;;;;;;;;;;;;;8.87;100.00;100677.75;3057462;19;20288;-52
2022/10/14 03:49:16;;;;;;;;;;;;;;;8.84;100.00;100679.69;3057314;19;20262;-51
2022/10/14 03:50:18;;;;;;;;;;;;;;;8.81;100.00;100680.75;3056938;19;19919;-51
2022/10/14 03:51:26;;;;;;;;;;;;;;;8.77;100.00;100679.16;3057272;19;19946;-51
2022/10/14 03:52:40;;;;;;;;;;;;;;;8.76;100.00;100676.59;3057257;19;19922;-52
2022/10/14 03:53:58;;;;;;;;;;;;;;;8.73;100.00;100677.59;3056920;19;19922;-52
2022/10/14 03:55:02;;;;;;;;;;;;;;;8.72;100.00;100675.88;3057135;19;19979;-51
2022/10/14 03:56:07;;;;;;;;;;;;;;;8.73;100.00;100672.28;3057299;19;19937;-52
2022/10/14 03:57:09;;;;;;;;;;;;;;;8.71;100.00;100674.16;3056691;19;19946;-52
2022/10/14 03:58:20;;;;;;;;;;;;;;;8.63;100.00;100660.38;3056983;19;19918;-52
2022/10/14 03:59:29;;;;;;;;;;;;;;;8.63;100.00;100663.03;3056967;19;19936;-51
2022/10/14 04:00:34;;;;;;;;;;;;;;;8.61;100.00;100672.91;3056707;19;20090;-51
2022/10/14 04:01:54;;;;;;;;;;;;;;;8.61;100.00;100668.44;3056483;19;20006;-51
2022/10/14 04:03:01;;;;;;;;;;;;;;;8.60;100.00;100668.50;3056734;19;20369;-51
2022/10/14 04:04:12;;;;;;;;;;;;;;;8.61;100.00;100663.13;3056268;19;20567;-52
2022/10/14 04:05:17;;;;;;;;;;;;;;;8.58;100.00;100662.41;3056937;19;20513;-51
2022/10/14 04:06:21;;;;;;;;;;;;;;;8.57;100.00;100663.38;3056763;19;19919;-51
2022/10/14 04:07:31;;;;;;;;;;;;;;;8.58;100.00;100667.72;3057014;19;19926;-51
2022/10/14 04:08:33;;;;;;;;;;;;;;;8.57;100.00;100668.69;3056608;19;20021;-51
2022/10/14 04:09:50;;;;;;;;;;;;;;;8.58;100.00;100673.03;3056860;19;19919;-51
2022/10/14 04:10:52;;;;;;;;;;;;;;;8.56;100.00;100664.31;3056687;19;20260;-51
2022/10/14 04:11:58;;;;;;;;;;;;;;;8.54;100.00;100659.06;3057080;19;20322;-52
2022/10/14 04:13:21;;;;;;;;;;;;;;;8.55;100.00;100660.78;3056538;19;20422;-52
2022/10/14 04:14:24;;;;;;;;;;;;;;;8.57;100.00;100661.53;3056860;19;20011;-52
2022/10/14 04:15:28;;;;;;;;;;;;;;;8.58;100.00;100662.41;3056606;19;19938;-52
2022/10/14 04:16:42;;;;;;;;;;;;;;;8.58;100.00;100673.03;3056140;19;19915;-52
2022/10/14 04:17:53;;;;;;;;;;;;;;;8.57;100.00;100655.41;3056168;19;19931;-52
2022/10/14 04:18:56;;;;;;;;;;;;;;;8.57;100.00;100660.72;3056689;19;19931;-52
2022/10/14 04:20:01;;;;;;;;;;;;;;;8.56;100.00;100654.53;3056778;19;19935;-52
2022/10/14 04:21:04;;;;;;;;;;;;;;;8.56;100.00;100658.97;3056814;19;20012;-52
2022/10/14 04:22:09;;;;;;;;;;;;;;;8.56;100.00;100659.84;3056988;19;20251;-52
2022/10/14 04:23:10;;;;;;;;;;;;;;;8.56;100.00;100649.22;3056492;19;20381;-52
2022/10/14 04:24:17;;;;;;;;;;;;;;;8.57;100.00;100655.41;3056548;19;19978;-52
2022/10/14 04:25:22;;;;;;;;;;;;;;;8.56;100.00;100656.31;3056765;19;20444;-51
2022/10/14 04:26:31;;;;;;;;;;;;;;;8.56;100.00;100648.34;3056744;19;19951;-51
2022/10/14 04:27:36;;;;;;;;;;;;;;;8.58;100.00;100659.75;3056425;19;20011;-52
2022/10/14 04:28:41;;;;;;;;;;;;;;;8.57;100.00;100644.75;3056957;19;19923;-51
2022/10/14 04:29:51;;;;;;;;;;;;;;;8.59;100.00;100645.50;3056838;19;19923;-52
2022/10/14 04:31:01;;;;;;;;;;;;;;;8.60;100.00;100655.22;3057245;19;19948;-52
2022/10/14 04:32:15;;;;;;;;;;;;;;;8.60;100.00;100652.56;3056154;19;19960;-52
2022/10/14 04:33:16;;;;;;;;;;;;;;;8.60;100.00;100641.91;3056861;19;19926;-52
2022/10/14 04:34:23;;;;;;;;;;;;;;;8.62;100.00;100648.03;3056471;19;20540;-52
2022/10/14 04:35:26;;;;;;;;;;;;;;;8.63;100.00;100645.28;3055933;19;19978;-52
2022/10/14 04:36:32;;;;;;;;;;;;;;;8.65;100.00;100645.22;3050709;19;19918;-53
2022/10/14 04:37:36;;;;;;;;;;;;;;;8.62;100.00;100638.25;3027279;19;20357;-54
2022/10/14 04:38:48;;;;;;;;;;;;;;;8.63;100.00;100639.09;3036363;19;19955;-56
2022/10/14 04:39:50;;;;;;;;;;;;;;;8.64;100.00;100640.81;3031985;19;19926;-56
2022/10/14 04:40:55;;;;;;;;;;;;;;;8.63;100.00;100639.09;3031682;19;19923;-52
2022/10/14 04:41:57;;;;;;;;;;;;;;;8.64;100.00;100635.50;3031615;19;19922;-53
2022/10/14 04:43:02;;;;;;;;;;;;;;;8.64;100.00;100640.81;3034868;19;20542;-52
2022/10/14 04:44:10;;;;;;;;;;;;;;;8.66;100.00;100636.28;3033826;19;19934;-52
2022/10/14 04:45:21;;;;;;;;;;;;;;;8.66;100.00;100638.94;3034656;19;19922;-52
2022/10/14 04:46:33;;;;;;;;;;;;;;;8.66;100.00;100634.50;3035566;19;19933;-52
2022/10/14 04:47:35;;;;;;;;;;;;;;;8.66;100.00;100629.16;3033260;19;19936;-54
2022/10/14 04:48:39;;;;;;;;;;;;;;;8.69;100.00;100629.97;3035705;19;20263;-54
2022/10/14 04:49:41;;;;;;;;;;;;;;;8.69;100.00;100633.47;3039404;19;20293;-54
2022/10/14 04:50:53;;;;;;;;;;;;;;;8.71;100.00;100639.56;3045271;19;19918;-53
2022/10/14 04:52:20;;;;;;;;;;;;;;;8.72;100.00;100637.75;3052200;19;20592;-52
2022/10/14 04:53:31;;;;;;;;;;;;;;;8.73;100.00;100637.69;3054252;19;19930;-52
2022/10/14 04:54:54;;;;;;;;;;;;;;;8.73;100.00;100635.03;3055861;19;19940;-51
2022/10/14 04:56:07;;;;;;;;;;;;;;;8.75;100.00;100638.47;3055547;19;19996;-52
2022/10/14 04:57:17;;;;;;;;;;;;;;;8.74;100.00;100642.06;3055382;19;19940;-52
2022/10/14 04:58:21;;;;;;;;;;;;;;;8.74;100.00;100644.72;3054090;19;19919;-52
2022/10/14 04:59:27;;;;;;;;;;;;;;;8.76;100.00;100640.19;3055634;19;19914;-52
2022/10/14 05:00:56;;;;;;;;;;;;;;;8.76;100.00;100640.19;3055246;19;19918;-52
2022/10/14 05:02:05;;;;;;;;;;;;;;;8.77;100.00;100647.25;3055581;19;19926;-52
2022/10/14 05:03:15;;;;;;;;;;;;;;;8.77;100.00;100633.94;3055222;19;20329;-51
2022/10/14 05:04:19;;;;;;;;;;;;;;;8.74;100.00;100636.75;3055415;19;20740;-52
2022/10/14 05:05:23;;;;;;;;;;;;;;;8.78;100.00;100633.00;3055146;19;20764;-52
2022/10/14 05:06:30;;;;;;;;;;;;;;;8.78;100.00;100638.31;3055406;19;19931;-52
2022/10/14 05:07:33;;;;;;;;;;;;;;;8.80;100.00;100640.91;3055063;19;19923;-51
2022/10/14 05:08:53;;;;;;;;;;;;;;;8.79;100.00;100634.72;3055089;19;19932;-52
2022/10/14 05:09:56;;;;;;;;;;;;;;;8.79;100.00;100639.19;3055185;19;20350;-52
2022/10/14 05:11:10;;;;;;;;;;;;;;;8.77;100.00;100633.94;3052161;19;20120;-51
2022/10/14 05:12:24;;;;;;;;;;;;;;;8.78;100.00;100629.47;3053210;19;19927;-53
2022/10/14 05:13:34;;;;;;;;;;;;;;;8.80;100.00;100631.13;3053538;19;19927;-51
2022/10/14 05:14:40;;;;;;;;;;;;;;;8.84;100.00;100631.81;3052719;19;19922;-51
2022/10/14 05:15:54;;;;;;;;;;;;;;;8.87;100.00;100632.50;3053841;19;19922;-52
2022/10/14 05:16:57;;;;;;;;;;;;;;;8.90;100.00;100632.38;3054162;19;19955;-51
2022/10/14 05:18:06;;;;;;;;;;;;;;;8.95;100.00;100629.44;3054251;19;20513;-51
2022/10/14 05:19:29;;;;;;;;;;;;;;;8.98;100.00;100630.16;3053901;19;20270;-51
2022/10/14 05:20:31;;;;;;;;;;;;;;;8.99;100.00;100631.88;3054688;19;20575;-52
2022/10/14 05:21:36;;;;;;;;;;;;;;;9.01;100.00;100630.00;3053327;19;19944;-52
2022/10/14 05:22:49;;;;;;;;;;;;;;;9.06;100.00;100637.72;3054467;19;19914;-52
2022/10/14 05:23:54;;;;;;;;;;;;;;;9.09;100.00;100631.38;3054084;19;20246;-52
2022/10/14 05:24:59;;;;;;;;;;;;;;;9.12;100.00;100636.53;3053569;19;20387;-52
2022/10/14 05:26:04;;;;;;;;;;;;;;;9.14;100.00;100634.66;3053450;19;20062;-52
2022/10/14 05:27:06;;;;;;;;;;;;;;;9.15;100.00;100641.72;3055343;19;20298;-52
2022/10/14 05:28:11;;;;;;;;;;;;;;;9.16;100.00;100636.31;3054843;19;21344;-52
2022/10/14 05:29:18;;;;;;;;;;;;;;;9.17;100.00;100646.03;3055312;19;19918;-51
2022/10/14 05:30:22;;;;;;;;;;;;;;;9.19;100.00;100637.94;3054048;19;20479;-52
2022/10/14 05:31:28;;;;;;;;;;;;;;;9.17;100.00;100645.16;3054691;19;19915;-53
2022/10/14 05:32:50;;;;;;;;;;;;;;;9.17;100.00;100643.38;3054036;19;19918;-52
2022/10/14 05:34:00;;;;;;;;;;;;;;;9.18;100.00;100642.38;3051535;19;20200;-52
2022/10/14 05:35:01;;;;;;;;;;;;;;;9.18;100.00;100638.88;3055088;19;19926;-52
2022/10/14 05:36:11;;;;;;;;;;;;;;;9.16;100.00;100638.97;3053956;19;20371;-53
2022/10/14 05:37:14;;;;;;;;;;;;;;;9.19;100.00;100640.59;3053434;19;20014;-51
2022/10/14 05:38:23;;;;;;;;;;;;;;;9.19;100.00;100643.25;3053952;19;20018;-52
2022/10/14 05:39:25;;;;;;;;;;;;;;;9.21;100.00;100641.38;3053808;19;19915;-51
2022/10/14 05:40:31;;;;;;;;;;;;;;;9.24;100.00;100635.88;3053225;19;20031;-51
2022/10/14 05:41:33;;;;;;;;;;;;;;;9.26;100.00;100644.66;3054736;19;19919;-52
2022/10/14 05:42:39;;;;;;;;;;;;;;;9.31;100.00;100647.91;3054268;19;20311;-51
2022/10/14 05:43:40;;;;;;;;;;;;;;;9.34;100.00;100643.28;3053213;19;19976;-52
2022/10/14 05:44:46;;;;;;;;;;;;;;;9.40;100.00;100636.78;3054045;19;19919;-52